Search for airport 
image banner adimage banner ad
image banner ad

DAON - Tlemcen / Zenata-Messali El Hadj

Located in Tlemcen, Algeria

ICAO - DAON, IATA - TLM

Data provided by Airmate  

General information

Coordinates: N35°0'55" W1°27'3"
Elevation is 813 feet MSL.
 
Rated:
View ratings: [VIEW]


View others Airports in Tlemcen Province

Operational data

Open for public use
Current time UTC:
Current local time:
Weather
METAR: DAON 130000Z 00000KT 9999 SCT026 22/19 Q1016
TAF: TAF DAON 122300Z 1300/1324 VRB02KT 9999 FEW026 BECMG 1309/1312 34010KT CAVOK BECMG 1321/1324 VRB02KT
View NOTAMs / SUP AIP / TFR affecting this airport [VIEW]
Communications frequencies: [VIEW]

Runways:

RWY identifierQFULength (ft)Width (ft)SurfaceLDA (ft)
0769°8530148ASP
25249°8530148

Airport contact information

Address: Tlemcen Algeria

Satellite view of DAON